createdAt,value
2022-08-18T00:01:50.012Z,22.32
2022-08-18T00:04:55.374Z,22.29
2022-08-18T00:08:01.558Z,22.24
2022-08-18T00:11:04.906Z,22.17
2022-08-18T00:14:08.467Z,22.12
2022-08-18T00:17:11.389Z,22.02
2022-08-18T00:20:16.604Z,21.96
2022-08-18T00:23:20.507Z,21.89
2022-08-18T00:26:23.388Z,21.86
2022-08-18T00:29:26.748Z,21.87
2022-08-18T00:32:31.037Z,21.81
2022-08-18T00:35:35.859Z,21.70
2022-08-18T00:38:40.812Z,21.64
2022-08-18T00:41:43.320Z,21.66
2022-08-18T00:44:45.912Z,21.67
2022-08-18T00:47:48.397Z,21.74
2022-08-18T00:50:54.159Z,21.81
2022-08-18T00:54:03.905Z,21.86
2022-08-18T00:57:08.297Z,21.89
2022-08-18T01:00:13.204Z,21.84
2022-08-18T01:03:24.459Z,21.74
2022-08-18T01:06:33.312Z,21.77
2022-08-18T01:09:37.503Z,21.72
2022-08-18T01:12:46.241Z,21.60
2022-08-18T01:15:49.098Z,21.61
2022-08-18T01:19:09.779Z,21.54
2022-08-18T01:22:25.344Z,21.51
2022-08-18T01:25:49.064Z,21.42
2022-08-18T01:28:52.427Z,21.36
2022-08-18T01:31:56.041Z,21.31
2022-08-18T01:35:00.229Z,21.24
2022-08-18T01:38:02.659Z,21.22
2022-08-18T01:41:25.600Z,21.20
2022-08-18T01:44:29.891Z,21.15
2022-08-18T01:47:47.090Z,21.15
2022-08-18T01:50:53.461Z,21.08
2022-08-18T01:53:56.238Z,20.96
2022-08-18T01:57:00.696Z,20.86
2022-08-18T02:00:03.228Z,20.68
2022-08-18T02:03:08.628Z,20.63
2022-08-18T02:06:14.711Z,20.64
2022-08-18T02:09:17.368Z,20.63
2022-08-18T02:12:28.177Z,20.66
2022-08-18T02:15:30.659Z,20.62
2022-08-18T02:18:47.449Z,20.61
2022-08-18T02:21:52.688Z,20.57
2022-08-18T02:24:57.515Z,20.56
2022-08-18T02:28:01.315Z,20.48
2022-08-18T02:31:09.063Z,20.41
2022-08-18T02:34:13.955Z,20.33
2022-08-18T02:37:16.377Z,20.29
2022-08-18T02:40:19.477Z,20.21
2022-08-18T02:43:23.446Z,20.24
2022-08-18T02:46:30.210Z,20.29
2022-08-18T02:49:34.077Z,20.33
2022-08-18T02:52:36.659Z,20.42
2022-08-18T02:55:40.804Z,20.36
2022-08-18T02:58:44.608Z,20.29
2022-08-18T03:01:50.734Z,20.19
2022-08-18T03:04:53.484Z,20.06
2022-08-18T03:07:55.928Z,19.96
2022-08-18T03:10:58.758Z,19.93
2022-08-18T03:14:03.037Z,19.83
2022-08-18T03:17:08.195Z,19.75
2022-08-18T03:20:11.516Z,19.65
2022-08-18T03:23:14.185Z,19.70
2022-08-18T03:26:17.752Z,19.65
2022-08-18T03:29:22.127Z,19.56
2022-08-18T03:32:24.571Z,19.45
2022-08-18T03:35:27.039Z,19.35
2022-08-18T03:38:29.500Z,19.26
2022-08-18T03:41:56.992Z,19.15
2022-08-18T03:44:55.849Z,19.29
2022-08-18T03:48:00.438Z,19.55
2022-08-18T03:51:06.755Z,19.89
2022-08-18T03:54:09.722Z,19.93
2022-08-18T03:57:13.154Z,19.91
2022-08-18T04:00:17.999Z,19.98
2022-08-18T04:03:20.480Z,19.96
2022-08-18T04:06:30.379Z,20.11
2022-08-18T04:09:34.591Z,20.11
2022-08-18T04:12:39.732Z,20.04
2022-08-18T04:15:43.590Z,19.98
2022-08-18T04:18:46.027Z,19.98
2022-08-18T04:21:53.098Z,20.02
2022-08-18T04:24:55.631Z,20.04
2022-08-18T04:28:03.377Z,20.12
2022-08-18T04:31:13.170Z,20.29
2022-08-18T04:34:16.141Z,20.37
2022-08-18T04:37:19.284Z,20.47
2022-08-18T04:40:25.172Z,20.49
2022-08-18T04:43:27.953Z,20.56
2022-08-18T04:46:36.067Z,20.65
2022-08-18T04:49:38.856Z,20.78
2022-08-18T04:52:59.080Z,20.93
2022-08-18T04:56:01.531Z,21.03
2022-08-18T04:59:09.483Z,21.16
2022-08-18T05:02:14.996Z,21.26
2022-08-18T05:05:17.810Z,21.34
2022-08-18T05:08:20.499Z,21.56
2022-08-18T05:11:24.418Z,21.79
2022-08-18T05:14:27.583Z,21.81
2022-08-18T05:17:31.399Z,21.97
2022-08-18T05:20:33.882Z,21.99
2022-08-18T05:23:36.330Z,22.04
2022-08-18T05:26:41.048Z,22.11
2022-08-18T05:29:46.094Z,22.15
2022-08-18T05:32:50.730Z,22.38
2022-08-18T05:36:03.404Z,22.73
2022-08-18T05:39:13.371Z,23.27
2022-08-18T05:42:19.344Z,24.11
2022-08-18T05:45:21.803Z,24.36
2022-08-18T05:48:25.607Z,24.04
2022-08-18T05:51:32.118Z,23.70
2022-08-18T05:54:58.203Z,23.60
2022-08-18T05:58:04.381Z,23.61
2022-08-18T06:01:12.532Z,23.79
2022-08-18T06:04:24.391Z,24.00
2022-08-18T06:07:35.413Z,24.00
2022-08-18T06:10:38.012Z,24.26
2022-08-18T06:13:43.493Z,24.98
2022-08-18T06:17:08.054Z,25.15
2022-08-18T06:20:21.156Z,24.84
2022-08-18T06:23:30.972Z,24.85
2022-08-18T06:26:41.332Z,25.01
2022-08-18T06:29:58.771Z,25.08
2022-08-18T06:33:11.573Z,24.97
2022-08-18T06:36:27.060Z,25.29
2022-08-18T06:39:35.595Z,25.81
2022-08-18T06:42:40.579Z,26.24
2022-08-18T06:45:46.040Z,26.89
2022-08-18T06:48:54.643Z,27.67
2022-08-18T06:51:58.413Z,27.89
2022-08-18T06:55:03.398Z,27.97
2022-08-18T06:58:20.778Z,27.82
2022-08-18T07:01:25.709Z,27.95
2022-08-18T07:04:34.356Z,28.14
2022-08-18T07:07:41.146Z,28.46
2022-08-18T07:10:46.019Z,29.06
2022-08-18T07:14:09.105Z,28.96
2022-08-18T07:17:22.179Z,28.21
2022-08-18T07:20:25.873Z,27.38
2022-08-18T07:23:34.701Z,26.99
2022-08-18T07:27:00.099Z,27.19
2022-08-18T07:30:06.055Z,27.48
2022-08-18T07:33:19.086Z,27.85
2022-08-18T07:36:25.717Z,27.91
2022-08-18T07:39:34.216Z,27.83
2022-08-18T07:43:01.653Z,27.97
2022-08-18T07:46:11.541Z,28.17
2022-08-18T07:49:21.994Z,28.37
2022-08-18T07:52:44.059Z,27.93
2022-08-18T07:55:56.856Z,27.77
2022-08-18T07:59:08.899Z,27.78
2022-08-18T08:02:24.027Z,27.90
2022-08-18T08:05:40.448Z,28.20
2022-08-18T08:08:45.064Z,28.35
2022-08-18T08:11:59.227Z,28.62
2022-08-18T08:15:13.605Z,28.58
2022-08-18T08:18:22.387Z,28.67
2022-08-18T08:21:29.807Z,28.44
2022-08-18T08:24:40.465Z,28.21
2022-08-18T08:27:59.563Z,28.51
2022-08-18T08:31:35.893Z,28.40
2022-08-18T08:34:43.688Z,28.36
2022-08-18T08:37:52.694Z,28.45
2022-08-18T08:41:04.377Z,28.53
2022-08-18T08:44:11.865Z,28.42
2022-08-18T08:47:23.264Z,28.68
2022-08-18T08:50:28.191Z,28.96
2022-08-18T08:53:35.311Z,29.39
2022-08-18T08:56:44.429Z,29.54
2022-08-18T08:59:51.672Z,29.55
2022-08-18T09:03:03.117Z,29.95
2022-08-18T09:06:22.667Z,29.78
2022-08-18T09:09:41.083Z,29.65
2022-08-18T09:12:54.784Z,29.77
2022-08-18T09:16:13.696Z,29.92
2022-08-18T09:19:34.370Z,30.00
2022-08-18T09:22:46.560Z,29.90
2022-08-18T09:25:51.926Z,30.11
2022-08-18T09:28:58.862Z,30.07
2022-08-18T09:32:37.284Z,30.02
2022-08-18T09:35:57.822Z,30.00
2022-08-18T09:39:27.681Z,29.87
2022-08-18T09:42:50.001Z,30.13
2022-08-18T09:45:56.320Z,30.57
2022-08-18T09:49:37.991Z,30.62
2022-08-18T09:52:50.126Z,30.56
2022-08-18T09:56:04.816Z,30.45
2022-08-18T09:59:10.828Z,30.45
2022-08-18T10:02:36.905Z,30.63
2022-08-18T10:05:42.202Z,30.79
2022-08-18T10:09:26.820Z,30.79
2022-08-18T10:13:08.459Z,31.36
2022-08-18T10:16:21.252Z,31.81
2022-08-18T10:19:33.820Z,31.67
2022-08-18T10:22:47.500Z,31.98
2022-08-18T10:25:50.249Z,31.73
2022-08-18T10:28:55.617Z,31.99
2022-08-18T10:32:24.593Z,32.02
2022-08-18T10:35:57.788Z,32.37
2022-08-18T10:39:06.690Z,33.11
2022-08-18T10:42:19.247Z,33.13
2022-08-18T10:45:26.848Z,32.44
2022-08-18T10:48:31.953Z,32.81
2022-08-18T10:51:59.477Z,32.99
2022-08-18T10:55:16.303Z,33.04
2022-08-18T10:58:36.649Z,33.17
2022-08-18T11:02:04.863Z,32.81
2022-08-18T11:05:10.968Z,32.74
2022-08-18T11:08:17.242Z,32.65
2022-08-18T11:11:37.449Z,32.41
2022-08-18T11:15:22.059Z,32.65
2022-08-18T11:18:36.399Z,33.07
2022-08-18T11:21:51.105Z,33.20
2022-08-18T11:24:54.269Z,33.38
2022-08-18T11:27:59.139Z,33.69
2022-08-18T11:31:01.703Z,34.33
2022-08-18T11:34:18.351Z,34.90
2022-08-18T11:37:27.111Z,35.28
2022-08-18T11:41:10.727Z,35.15
2022-08-18T11:44:02.619Z,35.00
2022-08-18T11:47:17.326Z,35.13
2022-08-18T11:50:28.162Z,35.75
2022-08-18T11:53:43.013Z,35.64
2022-08-18T11:56:47.643Z,35.21
2022-08-18T12:03:21.833Z,35.53
2022-08-18T12:06:29.860Z,34.93
2022-08-18T12:13:03.619Z,36.79
2022-08-18T12:16:13.927Z,37.08
2022-08-18T12:19:17.459Z,36.64
2022-08-18T12:22:26.121Z,36.87
2022-08-18T12:25:28.549Z,37.09
2022-08-18T12:28:31.269Z,36.44
2022-08-18T12:31:47.552Z,35.60
2022-08-18T12:34:51.532Z,35.77
2022-08-18T12:37:59.584Z,37.02
2022-08-18T12:41:03.483Z,37.47
2022-08-18T12:44:09.987Z,36.65
2022-08-18T12:47:21.058Z,36.91
2022-08-18T12:50:31.346Z,37.26
2022-08-18T12:53:57.851Z,37.27
2022-08-18T12:57:00.719Z,38.20
2022-08-18T13:00:04.179Z,38.12
2022-08-18T13:03:08.742Z,37.73
2022-08-18T13:06:11.656Z,38.21
2022-08-18T13:09:16.373Z,38.07
2022-08-18T13:12:37.451Z,37.86
2022-08-18T13:15:44.399Z,38.21
2022-08-18T13:19:02.938Z,38.34
2022-08-18T13:22:09.442Z,38.24
2022-08-18T13:25:32.415Z,38.64
2022-08-18T13:28:57.283Z,38.80
2022-08-18T13:32:00.828Z,38.20
2022-08-18T13:35:13.357Z,36.98
2022-08-18T13:38:25.629Z,36.54
2022-08-18T13:41:32.667Z,36.27
2022-08-18T13:44:35.545Z,35.90
2022-08-18T13:47:39.467Z,35.28
2022-08-18T13:50:45.962Z,35.13
2022-08-18T13:54:14.360Z,35.15
2022-08-18T13:57:11.213Z,35.09
2022-08-18T14:00:20.254Z,34.80
2022-08-18T14:03:46.934Z,34.72
2022-08-18T14:06:57.328Z,35.01
2022-08-18T14:10:04.929Z,34.78
2022-08-18T14:13:20.258Z,33.93
2022-08-18T14:16:27.410Z,33.47
2022-08-18T14:19:47.588Z,33.31
2022-08-18T14:23:11.521Z,33.07
2022-08-18T14:26:31.958Z,32.73
2022-08-18T14:29:45.541Z,32.65
2022-08-18T14:32:53.471Z,32.84
2022-08-18T14:36:06.334Z,32.77
2022-08-18T14:39:13.898Z,32.29
2022-08-18T14:42:18.955Z,31.27
2022-08-18T14:45:34.392Z,30.67
2022-08-18T14:48:38.270Z,30.04
2022-08-18T14:51:46.041Z,29.71
2022-08-18T14:54:51.747Z,29.66
2022-08-18T14:57:59.377Z,29.62
2022-08-18T15:01:10.382Z,29.82
2022-08-18T15:04:19.082Z,29.96
2022-08-18T15:07:24.135Z,30.09
2022-08-18T15:10:29.006Z,30.30
2022-08-18T15:13:32.097Z,30.43
2022-08-18T15:16:35.004Z,30.44
2022-08-18T15:19:59.945Z,29.94
2022-08-18T15:23:27.919Z,29.98
2022-08-18T15:26:32.429Z,30.13
2022-08-18T15:29:37.133Z,30.31
2022-08-18T15:32:45.443Z,30.49
2022-08-18T15:35:50.505Z,30.57
2022-08-18T15:38:53.629Z,30.51
2022-08-18T15:41:58.276Z,30.32
2022-08-18T15:45:12.097Z,30.07
2022-08-18T15:48:17.570Z,29.92
2022-08-18T15:51:20.329Z,29.70
2022-08-18T15:54:22.998Z,29.35
2022-08-18T15:57:35.304Z,28.83
2022-08-18T16:00:50.594Z,28.10
2022-08-18T16:03:54.492Z,27.51
2022-08-18T16:06:57.421Z,27.05
2022-08-18T16:09:59.937Z,26.55
2022-08-18T16:13:05.124Z,26.18
2022-08-18T16:16:13.166Z,26.02
2022-08-18T16:19:15.664Z,25.93
2022-08-18T16:22:21.674Z,25.97
2022-08-18T16:25:24.545Z,26.09
2022-08-18T16:28:34.775Z,26.17
2022-08-18T16:31:37.642Z,26.02
2022-08-18T16:34:40.372Z,25.91
2022-08-18T16:37:43.149Z,25.68
2022-08-18T16:40:46.193Z,25.60
2022-08-18T16:43:50.373Z,25.54
2022-08-18T16:46:52.898Z,25.34
2022-08-18T16:49:58.472Z,25.14
2022-08-18T16:53:01.945Z,24.92
2022-08-18T16:56:05.089Z,24.75
2022-08-18T16:59:34.774Z,24.62
2022-08-18T17:02:54.629Z,24.41
2022-08-18T17:06:01.484Z,24.25
2022-08-18T17:09:09.821Z,24.26
2022-08-18T17:12:12.729Z,24.26
2022-08-18T17:15:16.746Z,24.17
2022-08-18T17:18:19.851Z,23.78
2022-08-18T17:21:29.697Z,23.52
2022-08-18T17:24:32.683Z,23.32
2022-08-18T17:27:37.298Z,23.22
2022-08-18T17:30:47.133Z,23.05
2022-08-18T17:33:49.976Z,22.81
2022-08-18T17:36:55.889Z,22.76
2022-08-18T17:40:04.199Z,22.83
2022-08-18T17:43:11.697Z,22.69
2022-08-18T17:46:25.929Z,22.73
2022-08-18T17:49:46.930Z,22.65
2022-08-18T17:52:56.382Z,22.64
2022-08-18T17:56:02.734Z,22.46
2022-08-18T17:59:46.072Z,22.42
2022-08-18T18:02:35.597Z,22.45
2022-08-18T18:05:42.716Z,22.41
2022-08-18T18:08:50.571Z,22.43
2022-08-18T18:11:53.099Z,22.40
2022-08-18T18:14:55.720Z,22.22
2022-08-18T18:18:20.091Z,22.10
2022-08-18T18:21:23.836Z,21.87
2022-08-18T18:24:51.143Z,21.84
2022-08-18T18:27:53.743Z,21.73
2022-08-18T18:31:00.311Z,21.75
2022-08-18T18:34:07.567Z,21.68
2022-08-18T18:37:33.191Z,21.48
2022-08-18T18:40:39.653Z,21.48
2022-08-18T18:43:44.671Z,21.40
2022-08-18T18:47:01.308Z,21.58
2022-08-18T18:50:10.564Z,21.54
2022-08-18T18:53:23.777Z,21.57
2022-08-18T18:56:30.647Z,21.59
2022-08-18T18:59:46.384Z,21.58
2022-08-18T19:02:59.335Z,21.69
2022-08-18T19:06:14.365Z,21.73
2022-08-18T19:09:23.225Z,21.57
2022-08-18T19:12:31.018Z,21.49
2022-08-18T19:15:38.398Z,21.50
2022-08-18T19:18:57.974Z,21.49
2022-08-18T19:22:19.002Z,21.42
2022-08-18T19:25:27.191Z,21.37
2022-08-18T19:28:35.139Z,21.29
2022-08-18T19:32:02.082Z,21.27
2022-08-18T19:35:11.880Z,21.36
2022-08-18T19:38:22.660Z,21.33
2022-08-18T19:41:38.969Z,21.39
2022-08-18T19:45:13.122Z,21.40
2022-08-18T19:48:26.065Z,21.46
2022-08-18T19:51:33.511Z,21.52
2022-08-18T19:54:51.865Z,21.45
2022-08-18T19:58:22.788Z,21.54
2022-08-18T20:01:36.812Z,21.54
2022-08-18T20:04:51.829Z,21.54
2022-08-18T20:08:29.754Z,21.53
2022-08-18T20:11:50.478Z,21.51
2022-08-18T20:15:01.982Z,21.40
2022-08-18T20:18:19.281Z,21.42
2022-08-18T20:24:50.818Z,21.31
2022-08-18T20:28:23.568Z,21.24
2022-08-18T20:31:26.619Z,21.18
2022-08-18T20:34:31.273Z,21.27
2022-08-18T20:37:33.950Z,21.26
2022-08-18T20:40:38.972Z,21.31
2022-08-18T20:43:42.948Z,21.29
2022-08-18T20:46:55.240Z,21.27
2022-08-18T20:50:19.463Z,21.32
2022-08-18T20:53:40.125Z,21.34
2022-08-18T20:56:48.124Z,21.41
2022-08-18T20:59:56.386Z,21.46
2022-08-18T21:03:00.874Z,21.41
2022-08-18T21:06:04.933Z,21.44
2022-08-18T21:09:07.485Z,21.45
2022-08-18T21:12:14.406Z,21.43
2022-08-18T21:15:18.611Z,21.44
2022-08-18T21:18:23.186Z,21.51
2022-08-18T21:21:28.350Z,21.55
2022-08-18T21:24:34.009Z,21.53
2022-08-18T21:27:39.077Z,21.54
2022-08-18T21:30:56.057Z,21.52
2022-08-18T21:34:35.566Z,21.39
2022-08-18T21:37:42.329Z,21.43
2022-08-18T21:43:50.807Z,21.30
2022-08-18T21:47:05.563Z,21.27
2022-08-18T21:50:12.204Z,21.27
2022-08-18T21:53:20.834Z,21.36
2022-08-18T21:56:25.721Z,21.39
2022-08-18T21:59:28.189Z,21.41
2022-08-18T22:02:32.149Z,21.42
2022-08-18T22:05:58.438Z,21.30
2022-08-18T22:09:20.405Z,21.38
2022-08-18T22:12:49.448Z,21.42
2022-08-18T22:15:52.344Z,21.40
2022-08-18T22:19:09.282Z,21.39
2022-08-18T22:22:25.760Z,21.45
2022-08-18T22:25:28.258Z,21.47
2022-08-18T22:28:30.740Z,21.45
2022-08-18T22:31:35.606Z,21.47
2022-08-18T22:34:40.473Z,21.47
2022-08-18T22:37:50.570Z,21.46
2022-08-18T22:40:53.297Z,21.35
2022-08-18T22:43:57.558Z,21.36
2022-08-18T22:47:00.261Z,21.31
2022-08-18T22:50:05.147Z,21.27
2022-08-18T22:53:07.638Z,21.18
2022-08-18T22:56:10.073Z,21.23
2022-08-18T22:59:19.585Z,21.30
2022-08-18T23:02:22.646Z,21.29
2022-08-18T23:05:26.451Z,21.29
2022-08-18T23:08:35.728Z,21.28
2022-08-18T23:11:53.764Z,21.24
2022-08-18T23:14:56.195Z,21.22
2022-08-18T23:17:58.706Z,21.21
2022-08-18T23:21:02.779Z,21.23
2022-08-18T23:24:05.509Z,21.20
2022-08-18T23:27:09.354Z,21.21
2022-08-18T23:30:12.478Z,21.22
2022-08-18T23:33:15.812Z,21.19
2022-08-18T23:36:19.687Z,21.21
2022-08-18T23:39:22.801Z,21.16
2022-08-18T23:42:25.293Z,21.14
2022-08-18T23:45:28.880Z,21.07
2022-08-18T23:48:31.475Z,21.10
2022-08-18T23:51:38.085Z,21.14
2022-08-18T23:54:40.520Z,21.08
2022-08-18T23:57:42.968Z,21.10
